Time;durP1;ratioP1;P1;durP2;ratioP2;P2;SDS_P1;SDS_P2;PMS_P1;PMS_P2;Temp;Humidity;BMP_temperature;BMP_pressure;BME280_temperature;BME280_humidity;BME280_pressure;Samples;Min_cycle;Max_cycle;Signal;HPM_P1;HPM_P2
2021/06/09 00:03:54;;;;;;;5.68;2.80;;;17.60;99.90;;;;;;21037908;28;20050;-48
2021/06/09 00:13:55;;;;;;;5.80;3.10;;;17.50;99.90;;;;;;21050175;28;20036;-48
2021/06/09 00:23:57;;;;;;;9.25;2.92;;;17.40;99.90;;;;;;21050124;28;20060;-48
2021/06/09 00:33:58;;;;;;;5.82;3.05;;;17.20;99.90;;;;;;21049121;28;20637;-48
2021/06/09 00:44:02;;;;;;;8.05;3.20;;;17.20;99.90;;;;;;21048577;28;20120;-48
2021/06/09 00:54:05;;;;;;;6.13;3.10;;;17.10;99.90;;;;;;21048335;28;20437;-48
2021/06/09 01:04:06;;;;;;;8.75;4.13;;;17.10;99.90;;;;;;20962346;28;20070;-48
2021/06/09 01:14:07;;;;;;;8.20;3.78;;;17.00;99.90;;;;;;20953006;28;20052;-48
2021/06/09 01:24:09;;;;;;;8.40;3.65;;;17.00;99.90;;;;;;20956237;28;20045;-48
2021/06/09 01:34:10;;;;;;;7.43;4.22;;;16.90;99.90;;;;;;20953643;28;20137;-48
2021/06/09 01:44:12;;;;;;;9.68;4.43;;;16.80;99.90;;;;;;20957110;28;20045;-48
2021/06/09 01:54:13;;;;;;;7.95;4.47;;;16.70;99.90;;;;;;20954176;28;20051;-48
2021/06/09 02:04:16;;;;;;;9.88;4.75;;;16.60;99.90;;;;;;21034415;28;20053;-48
2021/06/09 02:14:19;;;;;;;5.68;2.85;;;16.60;99.90;;;;;;21041689;28;20048;-48
2021/06/09 02:24:20;;;;;;;7.03;3.33;;;16.50;99.90;;;;;;21042436;28;20048;-48
2021/06/09 02:34:24;;;;;;;8.43;3.75;;;16.40;99.90;;;;;;21034493;28;20079;-48
2021/06/09 02:44:25;;;;;;;6.82;2.88;;;16.40;99.90;;;;;;21036828;28;20127;-48
2021/06/09 02:54:44;;;;;;;6.00;2.10;;;16.40;99.90;;;;;;21036523;28;20044;-48
2021/06/09 03:04:53;;;;;;;6.78;2.80;;;16.20;99.90;;;;;;20949654;28;20048;-48
2021/06/09 03:15:14;;;;;;;5.38;2.40;;;16.10;99.90;;;;;;20951117;28;20047;-48
2021/06/09 03:25:20;;;;;;;5.75;2.40;;;16.10;99.90;;;;;;20929404;28;20049;-48
2021/06/09 03:35:34;;;;;;;5.10;2.25;;;16.00;99.90;;;;;;20949634;28;20055;-48
2021/06/09 03:45:46;;;;;;;6.07;2.60;;;15.90;99.90;;;;;;20963602;28;20041;-48
2021/06/09 03:55:50;;;;;;;6.00;2.88;;;15.90;99.90;;;;;;20974774;28;20435;-48
2021/06/09 04:05:53;;;;;;;4.45;2.28;;;15.90;99.90;;;;;;21043067;28;20121;-48
2021/06/09 04:15:56;;;;;;;4.90;2.20;;;15.80;99.90;;;;;;21050643;28;20068;-48
2021/06/09 04:25:58;;;;;;;5.55;1.75;;;15.90;99.90;;;;;;21049818;28;20040;-48
2021/06/09 04:36:00;;;;;;;5.45;2.10;;;16.00;99.90;;;;;;21046622;28;20399;-48
2021/06/09 04:46:02;;;;;;;5.85;2.63;;;16.10;99.90;;;;;;21048094;28;20040;-48
2021/06/09 04:56:03;;;;;;;6.93;3.15;;;16.20;99.90;;;;;;21044739;28;20047;-48
2021/06/09 05:06:05;;;;;;;4.78;2.65;;;16.50;99.90;;;;;;21045663;28;20048;-48
2021/06/09 05:16:10;;;;;;;7.18;3.40;;;16.70;99.90;;;;;;21044853;28;20215;-48
2021/06/09 05:26:13;;;;;;;4.88;2.67;;;17.00;99.90;;;;;;21038874;28;20081;-48
2021/06/09 05:36:17;;;;;;;7.15;3.45;;;17.10;99.90;;;;;;21013053;28;20055;-48
2021/06/09 05:46:19;;;;;;;11.07;3.92;;;17.40;99.90;;;;;;21033150;28;20046;-48
2021/06/09 05:56:21;;;;;;;5.72;2.50;;;17.80;99.90;;;;;;21032029;28;20052;-48
2021/06/09 06:06:23;;;;;;;9.20;4.43;;;18.20;99.90;;;;;;21026550;28;20055;-48
2021/06/09 06:16:24;;;;;;;5.50;2.63;;;18.20;99.90;;;;;;21017944;28;20051;-48
2021/06/09 06:26:26;;;;;;;7.35;3.47;;;18.60;99.90;;;;;;21028582;28;20046;-48
2021/06/09 06:36:28;;;;;;;6.10;2.35;;;18.70;99.90;;;;;;21030468;28;20078;-48
2021/06/09 06:46:29;;;;;;;8.80;2.83;;;18.80;99.90;;;;;;21036984;28;20126;-48
2021/06/09 06:56:34;;;;;;;9.20;3.72;;;19.10;99.90;;;;;;21036525;28;20135;-48
2021/06/09 07:06:36;;;;;;;7.30;2.92;;;19.60;99.90;;;;;;21035689;28;20036;-48
2021/06/09 07:16:39;;;;;;;7.70;3.30;;;19.80;99.90;;;;;;21029959;28;20303;-48
2021/06/09 07:26:45;;;;;;;9.82;4.07;;;20.00;99.90;;;;;;21013297;28;20040;-48
2021/06/09 07:36:59;;;;;;;7.15;3.70;;;20.30;99.90;;;;;;21031988;28;20044;-48
2021/06/09 07:47:04;;;;;;;8.13;4.43;;;20.70;99.90;;;;;;21036926;28;20040;-48
2021/06/09 07:57:06;;;;;;;6.60;3.95;;;20.90;99.90;;;;;;21034417;28;20051;-48
2021/06/09 08:07:08;;;;;;;6.78;3.17;;;21.00;99.90;;;;;;21032335;28;20127;-48
2021/06/09 08:17:09;;;;;;;7.57;3.55;;;21.30;99.90;;;;;;21016306;28;20125;-48
2021/06/09 08:27:11;;;;;;;7.10;3.67;;;21.40;99.90;;;;;;21035214;28;20040;-48
2021/06/09 08:37:12;;;;;;;11.38;4.70;;;21.90;99.90;;;;;;21042717;28;20495;-48
2021/06/09 08:47:14;;;;;;;10.50;3.55;;;22.20;99.90;;;;;;21027550;28;20152;-48
2021/06/09 08:57:16;;;;;;;8.45;4.40;;;22.40;99.90;;;;;;21044836;28;20056;-48
2021/06/09 09:07:21;;;;;;;11.10;4.68;;;22.80;99.90;;;;;;21044219;28;20055;-48
2021/06/09 09:17:22;;;;;;;6.65;3.30;;;23.10;99.90;;;;;;21044566;28;20047;-48
2021/06/09 09:27:28;;;;;;;8.10;2.72;;;23.60;99.90;;;;;;21044982;28;20147;-48
2021/06/09 09:37:32;;;;;;;6.83;2.80;;;23.80;99.90;;;;;;21041804;28;20137;-48
2021/06/09 09:47:33;;;;;;;4.60;2.78;;;23.90;99.90;;;;;;21039153;28;20048;-48
2021/06/09 09:57:36;;;;;;;4.13;1.90;;;24.10;99.90;;;;;;21039047;28;20063;-48
2021/06/09 10:07:38;;;;;;;4.68;2.60;;;24.30;99.90;;;;;;21039544;28;20040;-48
2021/06/09 10:17:39;;;;;;;8.70;3.58;;;24.70;99.90;;;;;;21038678;28;20133;-48
2021/06/09 10:27:51;;;;;;;5.72;3.05;;;25.00;99.90;;;;;;21037538;28;20126;-48
2021/06/09 10:37:53;;;;;;;5.13;3.10;;;25.10;99.90;;;;;;21036385;28;20137;-48
2021/06/09 10:47:57;;;;;;;6.85;3.10;;;25.40;99.90;;;;;;21041521;28;20040;-48
2021/06/09 10:57:59;;;;;;;5.00;3.05;;;25.80;99.90;;;;;;21042618;28;20463;-49
2021/06/09 11:08:05;;;;;;;7.20;3.80;;;25.60;99.60;;;;;;21033276;28;20036;-48
2021/06/09 11:18:14;;;;;;;8.15;3.70;;;25.90;99.10;;;;;;21031452;28;20141;-48
2021/06/09 11:28:33;;;;;;;6.88;3.78;;;26.00;99.00;;;;;;21031422;28;20070;-48
2021/06/09 11:39:04;;;;;;;7.47;4.13;;;26.40;97.40;;;;;;21029124;28;20062;-48
2021/06/09 11:49:11;;;;;;;10.00;4.63;;;26.40;99.10;;;;;;21028090;28;20039;-48
2021/06/09 11:59:40;;;;;;;8.73;4.57;;;26.30;96.70;;;;;;21029072;28;20052;-48
2021/06/09 12:09:45;;;;;;;7.50;4.53;;;26.60;97.90;;;;;;21041765;28;20174;-48
2021/06/09 12:19:49;;;;;;;7.10;3.17;;;26.20;97.30;;;;;;21045035;28;20051;-48
2021/06/09 12:29:50;;;;;;;5.13;2.95;;;26.00;98.30;;;;;;21044968;28;20063;-48
2021/06/09 12:40:00;;;;;;;5.70;3.03;;;25.80;98.20;;;;;;21040916;28;20040;-48
2021/06/09 12:50:10;;;;;;;6.70;3.10;;;25.90;99.80;;;;;;21044385;28;20032;-48
2021/06/09 13:00:42;;;;;;;10.93;3.58;;;26.60;99.10;;;;;;21045801;28;20417;-48
2021/06/09 13:10:45;;;;;;;7.00;3.53;;;26.90;97.20;;;;;;21043547;28;20072;-48
2021/06/09 13:20:46;;;;;;;4.43;2.90;;;26.20;98.00;;;;;;21044940;28;20048;-48
2021/06/09 13:30:51;;;;;;;5.57;3.38;;;26.00;99.50;;;;;;21045062;28;20066;-48
2021/06/09 13:40:54;;;;;;;4.15;2.55;;;27.20;97.90;;;;;;21042488;28;20051;-48
2021/06/09 13:51:05;;;;;;;3.92;2.33;;;26.90;98.20;;;;;;21043124;28;20051;-48
2021/06/09 14:01:14;;;;;;;3.53;1.23;;;26.40;96.10;;;;;;21036740;28;20056;-49
2021/06/09 14:11:16;;;;;;;2.20;1.05;;;26.00;96.60;;;;;;21039246;28;20420;-48
2021/06/09 14:21:17;;;;;;;2.65;0.77;;;26.30;95.60;;;;;;21039366;28;20133;-49
2021/06/09 14:31:24;;;;;;;2.83;1.00;;;26.40;94.00;;;;;;21035322;28;20553;-48
2021/06/09 14:41:32;;;;;;;1.27;0.60;;;26.20;93.00;;;;;;21036816;28;20048;-48
2021/06/09 14:51:33;;;;;;;1.52;0.60;;;26.00;93.30;;;;;;21037392;28;20350;-48
2021/06/09 15:01:35;;;;;;;0.90;0.30;;;25.70;90.70;;;;;;21034067;28;20385;-48
2021/06/09 15:11:36;;;;;;;1.27;0.45;;;25.70;85.00;;;;;;21033973;28;20384;-48
2021/06/09 15:21:37;;;;;;;0.50;0.20;;;25.30;81.70;;;;;;21023865;28;20459;-48
2021/06/09 15:31:40;;;;;;;0.77;0.20;;;25.50;84.60;;;;;;21028426;28;20040;-48
2021/06/09 15:41:43;;;;;;;0.40;0.10;;;25.30;86.10;;;;;;21032053;28;20411;-48
2021/06/09 15:51:46;;;;;;;0.40;0.20;;;25.20;85.40;;;;;;21042773;28;20284;-49
2021/06/09 16:01:47;;;;;;;0.30;0.20;;;25.20;88.50;;;;;;21044447;28;20051;-48
2021/06/09 16:11:48;;;;;;;1.75;0.32;;;24.90;88.10;;;;;;21047027;28;20453;-48
2021/06/09 16:21:50;;;;;;;0.52;0.20;;;24.60;90.30;;;;;;21044804;28;20047;-48
2021/06/09 16:31:51;;;;;;;0.30;0.15;;;24.50;90.40;;;;;;21038971;28;20398;-48
2021/06/09 16:41:52;;;;;;;0.63;0.15;;;24.70;90.90;;;;;;21038705;28;20111;-48
2021/06/09 16:51:56;;;;;;;0.40;0.30;;;24.20;92.50;;;;;;21037685;28;20430;-48
2021/06/09 17:01:57;;;;;;;0.50;0.20;;;23.70;93.60;;;;;;21040255;28;20044;-48
2021/06/09 17:12:00;;;;;;;0.43;0.20;;;23.30;95.00;;;;;;21038446;28;20452;-48
2021/06/09 17:22:02;;;;;;;1.65;0.75;;;23.60;94.70;;;;;;21035093;28;20028;-48
2021/06/09 17:32:04;;;;;;;0.55;0.28;;;23.20;95.90;;;;;;21040218;28;20048;-48
2021/06/09 17:42:06;;;;;;;2.10;0.77;;;22.90;96.80;;;;;;21031505;28;20573;-48
2021/06/09 17:52:07;;;;;;;1.85;0.50;;;22.90;97.40;;;;;;21042208;28;20062;-48
2021/06/09 18:02:20;;;;;;;1.85;0.40;;;22.80;97.70;;;;;;21024787;28;20507;-48
2021/06/09 18:12:21;;;;;;;1.10;0.40;;;22.50;98.30;;;;;;21004016;28;20425;-48
2021/06/09 18:22:22;;;;;;;0.50;0.20;;;22.50;97.60;;;;;;20994115;28;20580;-48
2021/06/09 18:32:24;;;;;;;3.65;0.40;;;22.30;97.90;;;;;;21004472;28;20406;-48
2021/06/09 18:42:25;;;;;;;1.15;0.38;;;22.00;96.80;;;;;;20999136;28;20046;-48
2021/06/09 18:52:26;;;;;;;0.77;0.25;;;21.90;96.40;;;;;;20994298;28;20505;-48
2021/06/09 19:02:28;;;;;;;0.60;0.20;;;21.80;97.20;;;;;;21003797;28;20408;-48
2021/06/09 19:12:29;;;;;;;0.90;0.20;;;21.50;98.50;;;;;;21005263;28;20968;-48
2021/06/09 19:22:31;;;;;;;0.50;0.30;;;21.40;98.70;;;;;;21005203;28;20043;-48
2021/06/09 19:32:33;;;;;;;0.93;0.43;;;21.10;99.90;;;;;;20998927;28;20081;-48
2021/06/09 19:42:34;;;;;;;1.80;0.60;;;20.70;99.90;;;;;;21007778;28;20411;-48
2021/06/09 19:52:35;;;;;;;1.77;0.70;;;20.50;99.90;;;;;;20995826;28;20437;-48
2021/06/09 20:02:37;;;;;;;1.63;0.57;;;20.00;99.90;;;;;;20999452;28;20048;-48
2021/06/09 20:12:38;;;;;;;1.42;0.38;;;19.80;99.90;;;;;;21002106;28;20513;-48
2021/06/09 20:22:44;;;;;;;1.23;0.40;;;19.50;99.90;;;;;;21004504;28;20521;-48
2021/06/09 20:32:45;;;;;;;2.63;0.85;;;19.40;99.90;;;;;;21014009;28;20048;-48
2021/06/09 20:42:47;;;;;;;0.68;0.47;;;19.20;99.90;;;;;;21014427;28;20403;-48
2021/06/09 20:52:49;;;;;;;2.92;1.02;;;18.90;99.90;;;;;;21007956;28;20044;-47
2021/06/09 21:02:50;;;;;;;1.05;0.60;;;18.50;99.90;;;;;;21006454;28;20491;-48
2021/06/09 21:12:52;;;;;;;1.63;0.80;;;18.40;99.90;;;;;;21014830;28;20565;-48
2021/06/09 21:22:53;;;;;;;1.77;0.98;;;18.10;99.90;;;;;;21009822;28;20653;-47
2021/06/09 21:32:55;;;;;;;1.23;0.60;;;18.00;99.90;;;;;;21012721;28;20598;-47
2021/06/09 21:42:56;;;;;;;1.92;1.27;;;17.80;99.90;;;;;;21002224;28;20479;-48
2021/06/09 21:52:57;;;;;;;2.63;0.85;;;17.70;99.90;;;;;;21010254;28;20529;-47
2021/06/09 22:02:58;;;;;;;2.05;1.05;;;17.50;99.90;;;;;;21014984;28;20496;-48
2021/06/09 22:13:00;;;;;;;2.83;1.05;;;17.30;99.90;;;;;;21008313;28;20051;-47
2021/06/09 22:23:02;;;;;;;1.63;0.68;;;17.30;99.90;;;;;;21006307;28;20049;-48
2021/06/09 22:33:04;;;;;;;4.63;1.45;;;17.20;99.90;;;;;;21012406;28;20047;-47
2021/06/09 22:43:05;;;;;;;3.45;1.52;;;17.20;99.90;;;;;;21005779;28;20044;-47
2021/06/09 22:53:06;;;;;;;2.67;1.48;;;17.00;99.90;;;;;;21002414;28;20430;-48
2021/06/09 23:03:08;;;;;;;8.75;1.35;;;16.90;99.90;;;;;;21008053;28;20051;-47
2021/06/09 23:13:12;;;;;;;4.25;1.88;;;16.80;99.90;;;;;;21001261;28;20075;-47
2021/06/09 23:23:13;;;;;;;3.58;1.70;;;16.80;99.90;;;;;;21001510;28;20044;-47
2021/06/09 23:33:18;;;;;;;4.53;1.88;;;16.70;99.90;;;;;;21007299;28;20105;-47
2021/06/09 23:43:19;;;;;;;6.95;2.35;;;16.60;99.90;;;;;;21009140;28;20050;-47
2021/06/09 23:53:21;;;;;;;4.55;2.10;;;16.30;99.90;;;;;;21018260;28;20048;-47
